sensor_id;sensor_type;location;lat;lon;timestamp;pressure;altitude;pressure_sealevel;temperature;humidity
9784;BME280;4931;44.874;-1.092;2023-02-11T00:01:32;103417.16;;;-0.22;100.00
9784;BME280;4931;44.874;-1.092;2023-02-11T00:04:00;103412.31;;;-0.38;100.00
9784;BME280;4931;44.874;-1.092;2023-02-11T00:06:27;103414.31;;;-0.49;100.00
9784;BME280;4931;44.874;-1.092;2023-02-11T00:08:54;103401.25;;;-0.54;100.00
9784;BME280;4931;44.874;-1.092;2023-02-11T00:11:21;103398.41;;;-0.62;100.00
9784;BME280;4931;44.874;-1.092;2023-02-11T00:13:47;103407.19;;;-0.70;100.00
9784;BME280;4931;44.874;-1.092;2023-02-11T00:16:15;103406.59;;;-0.74;100.00
9784;BME280;4931;44.874;-1.092;2023-02-11T00:18:40;103401.09;;;-0.72;100.00
9784;BME280;4931;44.874;-1.092;2023-02-11T00:21:11;103407.03;;;-0.78;100.00
9784;BME280;4931;44.874;-1.092;2023-02-11T00:23:37;103398.38;;;-0.92;100.00
9784;BME280;4931;44.874;-1.092;2023-02-11T00:26:09;103404.31;;;-0.88;100.00
9784;BME280;4931;44.874;-1.092;2023-02-11T00:28:35;103401.16;;;-1.03;100.00
9784;BME280;4931;44.874;-1.092;2023-02-11T00:31:00;103406.16;;;-0.89;100.00
9784;BME280;4931;44.874;-1.092;2023-02-11T00:33:26;103399.78;;;-0.88;100.00
9784;BME280;4931;44.874;-1.092;2023-02-11T00:35:52;103381.28;;;-1.12;100.00
9784;BME280;4931;44.874;-1.092;2023-02-11T00:38:17;103394.94;;;-1.04;100.00
9784;BME280;4931;44.874;-1.092;2023-02-11T00:40:43;103380.28;;;-1.21;100.00
9784;BME280;4931;44.874;-1.092;2023-02-11T00:43:08;103381.25;;;-1.22;100.00
9784;BME280;4931;44.874;-1.092;2023-02-11T00:45:33;103381.81;;;-1.28;100.00
9784;BME280;4931;44.874;-1.092;2023-02-11T00:47:59;103382.41;;;-1.14;100.00
9784;BME280;4931;44.874;-1.092;2023-02-11T00:50:24;103388.97;;;-1.07;100.00
9784;BME280;4931;44.874;-1.092;2023-02-11T00:52:50;103390.41;;;-0.93;100.00
9784;BME280;4931;44.874;-1.092;2023-02-11T00:55:16;103387.28;;;-0.89;100.00
9784;BME280;4931;44.874;-1.092;2023-02-11T00:57:42;103378.03;;;-0.96;100.00
9784;BME280;4931;44.874;-1.092;2023-02-11T01:00:08;103371.97;;;-0.98;100.00
9784;BME280;4931;44.874;-1.092;2023-02-11T01:02:35;103374.94;;;-0.91;100.00
9784;BME280;4931;44.874;-1.092;2023-02-11T01:05:00;103380.47;;;-0.93;100.00
9784;BME280;4931;44.874;-1.092;2023-02-11T01:07:27;103367.28;;;-0.96;100.00
9784;BME280;4931;44.874;-1.092;2023-02-11T01:09:52;103367.69;;;-1.01;100.00
9784;BME280;4931;44.874;-1.092;2023-02-11T01:12:18;103362.94;;;-1.28;100.00
9784;BME280;4931;44.874;-1.092;2023-02-11T01:14:44;103362.56;;;-1.13;100.00
9784;BME280;4931;44.874;-1.092;2023-02-11T01:17:10;103366.25;;;-1.14;100.00
9784;BME280;4931;44.874;-1.092;2023-02-11T01:19:36;103369.63;;;-1.22;100.00
9784;BME280;4931;44.874;-1.092;2023-02-11T01:22:02;103359.38;;;-1.38;100.00
9784;BME280;4931;44.874;-1.092;2023-02-11T01:24:28;103354.34;;;-1.53;100.00
9784;BME280;4931;44.874;-1.092;2023-02-11T01:26:54;103344.84;;;-1.57;100.00
9784;BME280;4931;44.874;-1.092;2023-02-11T01:29:19;103345.28;;;-1.52;100.00
9784;BME280;4931;44.874;-1.092;2023-02-11T01:31:45;103350.72;;;-1.42;100.00
9784;BME280;4931;44.874;-1.092;2023-02-11T01:34:10;103347.16;;;-1.42;100.00
9784;BME280;4931;44.874;-1.092;2023-02-11T01:36:36;103341.78;;;-1.42;100.00
9784;BME280;4931;44.874;-1.092;2023-02-11T01:39:01;103351.84;;;-1.44;100.00
9784;BME280;4931;44.874;-1.092;2023-02-11T01:41:27;103338.09;;;-1.41;100.00
9784;BME280;4931;44.874;-1.092;2023-02-11T01:43:52;103343.78;;;-1.44;100.00
9784;BME280;4931;44.874;-1.092;2023-02-11T01:46:29;103337.28;;;-1.32;100.00
9784;BME280;4931;44.874;-1.092;2023-02-11T01:49:05;103352.31;;;-1.29;100.00
9784;BME280;4931;44.874;-1.092;2023-02-11T01:52:02;103339.38;;;-1.45;100.00
9784;BME280;4931;44.874;-1.092;2023-02-11T01:54:32;103341.75;;;-1.52;100.00
9784;BME280;4931;44.874;-1.092;2023-02-11T01:57:20;103346.28;;;-1.53;100.00
9784;BME280;4931;44.874;-1.092;2023-02-11T02:02:15;103335.31;;;-1.71;100.00
9784;BME280;4931;44.874;-1.092;2023-02-11T02:07:51;103325.84;;;-1.65;100.00
9784;BME280;4931;44.874;-1.092;2023-02-11T02:10:22;103323.16;;;-1.55;100.00
9784;BME280;4931;44.874;-1.092;2023-02-11T02:12:48;103315.66;;;-1.61;100.00
9784;BME280;4931;44.874;-1.092;2023-02-11T02:15:20;103315.34;;;-1.68;100.00
9784;BME280;4931;44.874;-1.092;2023-02-11T02:17:57;103307.34;;;-1.79;100.00
9784;BME280;4931;44.874;-1.092;2023-02-11T02:23:08;103314.56;;;-1.80;100.00
9784;BME280;4931;44.874;-1.092;2023-02-11T02:34:05;103298.84;;;-1.85;100.00
9784;BME280;4931;44.874;-1.092;2023-02-11T02:36:37;103288.97;;;-1.74;100.00
9784;BME280;4931;44.874;-1.092;2023-02-11T02:39:14;103287.84;;;-1.72;100.00
9784;BME280;4931;44.874;-1.092;2023-02-11T02:41:43;103288.91;;;-1.84;100.00
9784;BME280;4931;44.874;-1.092;2023-02-11T02:44:10;103283.78;;;-1.97;100.00
9784;BME280;4931;44.874;-1.092;2023-02-11T02:46:36;103281.19;;;-1.98;100.00
9784;BME280;4931;44.874;-1.092;2023-02-11T02:49:02;103273.56;;;-2.03;100.00
9784;BME280;4931;44.874;-1.092;2023-02-11T02:56:53;103264.22;;;-1.99;100.00
9784;BME280;4931;44.874;-1.092;2023-02-11T03:07:02;103257.75;;;-1.87;100.00
9784;BME280;4931;44.874;-1.092;2023-02-11T03:09:48;103259.72;;;-1.89;100.00
9784;BME280;4931;44.874;-1.092;2023-02-11T03:12:16;103261.44;;;-1.88;100.00
9784;BME280;4931;44.874;-1.092;2023-02-11T03:14:43;103258.56;;;-1.96;100.00
9784;BME280;4931;44.874;-1.092;2023-02-11T03:17:09;103253.97;;;-2.05;100.00
9784;BME280;4931;44.874;-1.092;2023-02-11T03:19:37;103247.91;;;-2.07;100.00
9784;BME280;4931;44.874;-1.092;2023-02-11T03:22:07;103245.75;;;-2.13;100.00
9784;BME280;4931;44.874;-1.092;2023-02-11T03:24:37;103247.97;;;-2.19;100.00
9784;BME280;4931;44.874;-1.092;2023-02-11T03:30:09;103249.91;;;-2.30;100.00
9784;BME280;4931;44.874;-1.092;2023-02-11T03:32:38;103237.63;;;-2.44;100.00
9784;BME280;4931;44.874;-1.092;2023-02-11T03:35:20;103237.63;;;-2.44;100.00
9784;BME280;4931;44.874;-1.092;2023-02-11T03:37:58;103239.34;;;-2.43;100.00
9784;BME280;4931;44.874;-1.092;2023-02-11T03:40:26;103228.28;;;-2.50;100.00
9784;BME280;4931;44.874;-1.092;2023-02-11T03:43:11;103227.44;;;-2.51;100.00
9784;BME280;4931;44.874;-1.092;2023-02-11T03:45:42;103227.13;;;-2.57;100.00
9784;BME280;4931;44.874;-1.092;2023-02-11T03:48:28;103227.69;;;-2.54;100.00
9784;BME280;4931;44.874;-1.092;2023-02-11T03:50:57;103222.53;;;-2.45;100.00
9784;BME280;4931;44.874;-1.092;2023-02-11T03:53:24;103216.59;;;-2.39;100.00
9784;BME280;4931;44.874;-1.092;2023-02-11T03:55:50;103217.78;;;-2.32;100.00
9784;BME280;4931;44.874;-1.092;2023-02-11T03:58:18;103220.19;;;-2.29;100.00
9784;BME280;4931;44.874;-1.092;2023-02-11T04:00:44;103214.03;;;-2.41;100.00
9784;BME280;4931;44.874;-1.092;2023-02-11T04:03:10;103215.63;;;-2.38;100.00
9784;BME280;4931;44.874;-1.092;2023-02-11T04:05:37;103208.94;;;-2.44;100.00
9784;BME280;4931;44.874;-1.092;2023-02-11T04:08:03;103201.41;;;-2.50;100.00
9784;BME280;4931;44.874;-1.092;2023-02-11T04:10:29;103210.13;;;-2.58;100.00
9784;BME280;4931;44.874;-1.092;2023-02-11T04:12:54;103210.13;;;-2.58;100.00
9784;BME280;4931;44.874;-1.092;2023-02-11T04:15:20;103218.47;;;-2.61;100.00
9784;BME280;4931;44.874;-1.092;2023-02-11T04:17:45;103218.97;;;-2.67;100.00
9784;BME280;4931;44.874;-1.092;2023-02-11T04:20:11;103211.97;;;-2.79;100.00
9784;BME280;4931;44.874;-1.092;2023-02-11T04:22:37;103218.84;;;-2.87;100.00
9784;BME280;4931;44.874;-1.092;2023-02-11T04:25:04;103224.94;;;-2.85;100.00
9784;BME280;4931;44.874;-1.092;2023-02-11T04:27:30;103215.81;;;-2.93;100.00
9784;BME280;4931;44.874;-1.092;2023-02-11T04:29:55;103215.50;;;-3.00;100.00
9784;BME280;4931;44.874;-1.092;2023-02-11T04:32:21;103218.38;;;-2.92;100.00
9784;BME280;4931;44.874;-1.092;2023-02-11T04:34:47;103208.75;;;-2.94;100.00
9784;BME280;4931;44.874;-1.092;2023-02-11T04:37:13;103215.22;;;-2.97;100.00
9784;BME280;4931;44.874;-1.092;2023-02-11T04:39:38;103209.28;;;-3.01;100.00
9784;BME280;4931;44.874;-1.092;2023-02-11T04:42:04;103216.69;;;-2.93;100.00
9784;BME280;4931;44.874;-1.092;2023-02-11T04:44:29;103184.81;;;-3.19;100.00
9784;BME280;4931;44.874;-1.092;2023-02-11T04:46:55;103204.56;;;-3.08;100.00
9784;BME280;4931;44.874;-1.092;2023-02-11T04:49:21;103199.03;;;-3.07;100.00
9784;BME280;4931;44.874;-1.092;2023-02-11T04:51:46;103201.94;;;-2.98;100.00
9784;BME280;4931;44.874;-1.092;2023-02-11T04:54:12;103197.94;;;-3.04;100.00
9784;BME280;4931;44.874;-1.092;2023-02-11T04:56:38;103201.78;;;-2.97;100.00
9784;BME280;4931;44.874;-1.092;2023-02-11T04:59:04;103206.19;;;-2.96;100.00
9784;BME280;4931;44.874;-1.092;2023-02-11T05:01:30;103205.50;;;-2.98;100.00
9784;BME280;4931;44.874;-1.092;2023-02-11T05:03:55;103202.06;;;-3.00;100.00
9784;BME280;4931;44.874;-1.092;2023-02-11T05:06:21;103210.41;;;-3.03;100.00
9784;BME280;4931;44.874;-1.092;2023-02-11T05:08:47;103198.44;;;-3.10;100.00
9784;BME280;4931;44.874;-1.092;2023-02-11T05:11:18;103203.03;;;-3.01;100.00
9784;BME280;4931;44.874;-1.092;2023-02-11T05:13:44;103206.78;;;-2.92;100.00
9784;BME280;4931;44.874;-1.092;2023-02-11T05:16:09;103207.50;;;-2.90;100.00
9784;BME280;4931;44.874;-1.092;2023-02-11T05:18:40;103209.81;;;-2.86;100.00
9784;BME280;4931;44.874;-1.092;2023-02-11T05:21:07;103213.59;;;-2.88;100.00
9784;BME280;4931;44.874;-1.092;2023-02-11T05:23:33;103205.69;;;-2.90;100.00
9784;BME280;4931;44.874;-1.092;2023-02-11T05:25:59;103207.44;;;-2.79;100.00
9784;BME280;4931;44.874;-1.092;2023-02-11T05:28:24;103204.91;;;-2.80;100.00
9784;BME280;4931;44.874;-1.092;2023-02-11T05:30:49;103207.72;;;-2.82;100.00
9784;BME280;4931;44.874;-1.092;2023-02-11T05:33:15;103208.84;;;-2.85;100.00
9784;BME280;4931;44.874;-1.092;2023-02-11T05:35:40;103201.88;;;-2.87;100.00
9784;BME280;4931;44.874;-1.092;2023-02-11T05:38:06;103199.88;;;-3.06;100.00
9784;BME280;4931;44.874;-1.092;2023-02-11T05:40:31;103201.34;;;-3.02;100.00
9784;BME280;4931;44.874;-1.092;2023-02-11T05:42:57;103201.53;;;-3.15;100.00
9784;BME280;4931;44.874;-1.092;2023-02-11T05:45:22;103194.06;;;-3.11;100.00
9784;BME280;4931;44.874;-1.092;2023-02-11T05:47:48;103196.81;;;-3.23;100.00
9784;BME280;4931;44.874;-1.092;2023-02-11T05:50:14;103183.63;;;-3.26;100.00
9784;BME280;4931;44.874;-1.092;2023-02-11T05:52:39;103192.91;;;-3.30;100.00
9784;BME280;4931;44.874;-1.092;2023-02-11T05:55:05;103186.38;;;-3.37;100.00
9784;BME280;4931;44.874;-1.092;2023-02-11T05:57:30;103162.50;;;-3.52;100.00
9784;BME280;4931;44.874;-1.092;2023-02-11T05:59:56;103189.34;;;-3.52;100.00
9784;BME280;4931;44.874;-1.092;2023-02-11T06:02:21;103184.94;;;-3.53;100.00
9784;BME280;4931;44.874;-1.092;2023-02-11T06:04:47;103189.81;;;-3.46;100.00
9784;BME280;4931;44.874;-1.092;2023-02-11T06:07:12;103189.56;;;-3.55;100.00
9784;BME280;4931;44.874;-1.092;2023-02-11T06:09:38;103193.84;;;-3.52;100.00
9784;BME280;4931;44.874;-1.092;2023-02-11T06:12:03;103198.38;;;-3.53;100.00
9784;BME280;4931;44.874;-1.092;2023-02-11T06:14:34;103194.44;;;-3.48;100.00
9784;BME280;4931;44.874;-1.092;2023-02-11T06:17:00;103189.91;;;-3.37;100.00
9784;BME280;4931;44.874;-1.092;2023-02-11T06:19:25;103195.13;;;-3.35;100.00
9784;BME280;4931;44.874;-1.092;2023-02-11T06:21:51;103193.88;;;-3.31;100.00
9784;BME280;4931;44.874;-1.092;2023-02-11T06:24:16;103197.44;;;-3.30;100.00
9784;BME280;4931;44.874;-1.092;2023-02-11T06:26:42;103199.03;;;-3.28;100.00
9784;BME280;4931;44.874;-1.092;2023-02-11T06:29:07;103201.72;;;-3.28;100.00
9784;BME280;4931;44.874;-1.092;2023-02-11T06:31:33;103206.75;;;-3.35;100.00
9784;BME280;4931;44.874;-1.092;2023-02-11T06:33:58;103202.84;;;-3.42;100.00
9784;BME280;4931;44.874;-1.092;2023-02-11T06:36:25;103205.66;;;-3.43;100.00
9784;BME280;4931;44.874;-1.092;2023-02-11T06:38:50;103205.38;;;-3.40;100.00
9784;BME280;4931;44.874;-1.092;2023-02-11T06:41:17;103207.72;;;-3.47;100.00
9784;BME280;4931;44.874;-1.092;2023-02-11T06:43:46;103204.69;;;-3.54;100.00
9784;BME280;4931;44.874;-1.092;2023-02-11T06:46:11;103213.03;;;-3.57;100.00
9784;BME280;4931;44.874;-1.092;2023-02-11T06:48:37;103208.84;;;-3.50;100.00
9784;BME280;4931;44.874;-1.092;2023-02-11T06:51:05;103209.56;;;-3.47;100.00
9784;BME280;4931;44.874;-1.092;2023-02-11T06:53:33;103200.09;;;-3.52;100.00
9784;BME280;4931;44.874;-1.092;2023-02-11T06:56:07;103194.13;;;-3.67;100.00
9784;BME280;4931;44.874;-1.092;2023-02-11T06:58:34;103203.53;;;-3.61;100.00
9784;BME280;4931;44.874;-1.092;2023-02-11T07:01:03;103187.69;;;-3.75;100.00
9784;BME280;4931;44.874;-1.092;2023-02-11T07:03:31;103199.88;;;-3.71;100.00
9784;BME280;4931;44.874;-1.092;2023-02-11T07:05:56;103195.25;;;-3.80;100.00
9784;BME280;4931;44.874;-1.092;2023-02-11T07:08:22;103192.94;;;-3.85;100.00
9784;BME280;4931;44.874;-1.092;2023-02-11T07:10:47;103196.97;;;-3.79;100.00
9784;BME280;4931;44.874;-1.092;2023-02-11T07:13:13;103202.34;;;-3.79;100.00
9784;BME280;4931;44.874;-1.092;2023-02-11T07:15:38;103194.50;;;-3.71;100.00
9784;BME280;4931;44.874;-1.092;2023-02-11T07:18:04;103200.09;;;-3.74;100.00
9784;BME280;4931;44.874;-1.092;2023-02-11T07:20:29;103204.63;;;-3.75;100.00
9784;BME280;4931;44.874;-1.092;2023-02-11T07:22:54;103208.69;;;-3.92;100.00
9784;BME280;4931;44.874;-1.092;2023-02-11T07:25:20;103198.91;;;-3.81;100.00
9784;BME280;4931;44.874;-1.092;2023-02-11T07:27:45;103196.97;;;-3.79;100.00
9784;BME280;4931;44.874;-1.092;2023-02-11T07:30:11;103206.97;;;-3.70;100.00
9784;BME280;4931;44.874;-1.092;2023-02-11T07:32:37;103199.63;;;-3.68;100.00
9784;BME280;4931;44.874;-1.092;2023-02-11T07:35:03;103208.38;;;-3.55;100.00
9784;BME280;4931;44.874;-1.092;2023-02-11T07:37:29;103201.78;;;-3.51;100.00
9784;BME280;4931;44.874;-1.092;2023-02-11T07:39:54;103200.75;;;-3.38;100.00
9784;BME280;4931;44.874;-1.092;2023-02-11T07:42:20;103204.19;;;-3.36;100.00
9784;BME280;4931;44.874;-1.092;2023-02-11T07:44:45;103212.75;;;-3.42;100.00
9784;BME280;4931;44.874;-1.092;2023-02-11T07:47:10;103212.53;;;-3.51;100.00
9784;BME280;4931;44.874;-1.092;2023-02-11T07:49:36;103212.75;;;-3.54;100.00
9784;BME280;4931;44.874;-1.092;2023-02-11T07:52:01;103216.69;;;-3.58;100.00
9784;BME280;4931;44.874;-1.092;2023-02-11T07:54:27;103219.09;;;-3.55;100.00
9784;BME280;4931;44.874;-1.092;2023-02-11T07:56:52;103226.66;;;-3.48;100.00
9784;BME280;4931;44.874;-1.092;2023-02-11T07:59:18;103230.28;;;-3.38;100.00
9784;BME280;4931;44.874;-1.092;2023-02-11T08:01:43;103232.22;;;-3.29;100.00
9784;BME280;4931;44.874;-1.092;2023-02-11T08:04:09;103226.41;;;-3.13;100.00
9784;BME280;4931;44.874;-1.092;2023-02-11T08:06:40;103224.53;;;-3.01;100.00
9784;BME280;4931;44.874;-1.092;2023-02-11T08:09:07;103227.69;;;-2.96;100.00
9784;BME280;4931;44.874;-1.092;2023-02-11T08:11:33;103222.78;;;-2.91;100.00
9784;BME280;4931;44.874;-1.092;2023-02-11T08:14:00;103231.50;;;-2.77;100.00
9784;BME280;4931;44.874;-1.092;2023-02-11T08:16:28;103227.44;;;-2.51;100.00
9784;BME280;4931;44.874;-1.092;2023-02-11T08:18:55;103229.16;;;-2.19;100.00
9784;BME280;4931;44.874;-1.092;2023-02-11T08:21:22;103234.25;;;-1.85;100.00
9784;BME280;4931;44.874;-1.092;2023-02-11T08:23:48;103229.81;;;-1.55;100.00
9784;BME280;4931;44.874;-1.092;2023-02-11T08:26:17;103229.84;;;-1.35;100.00
9784;BME280;4931;44.874;-1.092;2023-02-11T08:28:45;103220.34;;;-1.20;100.00
9784;BME280;4931;44.874;-1.092;2023-02-11T08:31:15;103222.50;;;-1.04;100.00
9784;BME280;4931;44.874;-1.092;2023-02-11T08:33:42;103219.06;;;-0.86;100.00
9784;BME280;4931;44.874;-1.092;2023-02-11T08:36:09;103232.47;;;-0.57;100.00
9784;BME280;4931;44.874;-1.092;2023-02-11T08:38:35;103220.09;;;-0.40;100.00
9784;BME280;4931;44.874;-1.092;2023-02-11T08:41:00;103225.19;;;-0.27;100.00
9784;BME280;4931;44.874;-1.092;2023-02-11T08:43:26;103224.69;;;-0.12;100.00
9784;BME280;4931;44.874;-1.092;2023-02-11T08:45:51;103229.03;;;0.08;100.00
9784;BME280;4931;44.874;-1.092;2023-02-11T08:48:17;103223.13;;;0.23;100.00
9784;BME280;4931;44.874;-1.092;2023-02-11T08:50:42;103225.47;;;0.36;100.00
9784;BME280;4931;44.874;-1.092;2023-02-11T08:53:08;103226.88;;;0.58;100.00
9784;BME280;4931;44.874;-1.092;2023-02-11T08:55:33;103226.72;;;0.77;100.00
9784;BME280;4931;44.874;-1.092;2023-02-11T08:57:59;103224.91;;;0.96;100.00
9784;BME280;4931;44.874;-1.092;2023-02-11T09:00:34;103218.09;;;1.10;100.00
9784;BME280;4931;44.874;-1.092;2023-02-11T09:02:59;103224.03;;;1.13;100.00
9784;BME280;4931;44.874;-1.092;2023-02-11T09:05:25;103222.25;;;1.22;100.00
9784;BME280;4931;44.874;-1.092;2023-02-11T09:07:51;103220.66;;;1.38;100.00
9784;BME280;4931;44.874;-1.092;2023-02-11T09:10:23;103204.00;;;1.51;100.00
9784;BME280;4931;44.874;-1.092;2023-02-11T09:13:12;103214.28;;;1.73;100.00
9784;BME280;4931;44.874;-1.092;2023-02-11T09:15:50;103221.16;;;1.94;100.00
9784;BME280;4931;44.874;-1.092;2023-02-11T09:18:28;103211.75;;;2.06;100.00
9784;BME280;4931;44.874;-1.092;2023-02-11T09:21:05;103214.84;;;2.20;100.00
9784;BME280;4931;44.874;-1.092;2023-02-11T09:24:01;103209.16;;;2.39;100.00
9784;BME280;4931;44.874;-1.092;2023-02-11T09:26:46;103205.81;;;2.54;100.00
9784;BME280;4931;44.874;-1.092;2023-02-11T09:29:40;103215.34;;;2.91;100.00
9784;BME280;4931;44.874;-1.092;2023-02-11T09:32:35;103208.22;;;3.14;100.00
9784;BME280;4931;44.874;-1.092;2023-02-11T09:35:01;103211.59;;;3.33;100.00
9784;BME280;4931;44.874;-1.092;2023-02-11T09:37:29;103202.91;;;3.54;100.00
9784;BME280;4931;44.874;-1.092;2023-02-11T09:39:55;103202.38;;;3.67;100.00
9784;BME280;4931;44.874;-1.092;2023-02-11T09:42:36;103213.81;;;3.94;100.00
9784;BME280;4931;44.874;-1.092;2023-02-11T09:45:42;103211.38;;;4.15;100.00
9784;BME280;4931;44.874;-1.092;2023-02-11T09:48:19;103206.84;;;4.39;100.00
9784;BME280;4931;44.874;-1.092;2023-02-11T09:50:50;103214.84;;;4.64;100.00
9784;BME280;4931;44.874;-1.092;2023-02-11T09:53:42;103205.19;;;4.85;100.00
9784;BME280;4931;44.874;-1.092;2023-02-11T09:56:13;103215.81;;;5.18;100.00
9784;BME280;4931;44.874;-1.092;2023-02-11T09:58:43;103215.31;;;5.37;100.00
9784;BME280;4931;44.874;-1.092;2023-02-11T10:06:46;103201.03;;;6.25;100.00
9784;BME280;4931;44.874;-1.092;2023-02-11T10:09:43;103201.91;;;6.47;100.00
9784;BME280;4931;44.874;-1.092;2023-02-11T10:22:54;103196.34;;;7.48;100.00
9784;BME280;4931;44.874;-1.092;2023-02-11T10:25:25;103191.81;;;7.62;100.00
9784;BME280;4931;44.874;-1.092;2023-02-11T10:27:54;103186.38;;;7.69;100.00
9784;BME280;4931;44.874;-1.092;2023-02-11T10:32:55;103189.91;;;8.05;100.00
9784;BME280;4931;44.874;-1.092;2023-02-11T10:35:23;103178.66;;;8.28;100.00
9784;BME280;4931;44.874;-1.092;2023-02-11T10:37:52;103178.69;;;8.41;100.00
9784;BME280;4931;44.874;-1.092;2023-02-11T10:40:22;103185.53;;;8.72;100.00
9784;BME280;4931;44.874;-1.092;2023-02-11T10:42:50;103189.34;;;8.85;100.00
9784;BME280;4931;44.874;-1.092;2023-02-11T10:45:55;103180.94;;;9.20;100.00
9784;BME280;4931;44.874;-1.092;2023-02-11T10:48:43;103182.41;;;9.22;100.00
9784;BME280;4931;44.874;-1.092;2023-02-11T10:53:37;103187.25;;;9.40;100.00
9784;BME280;4931;44.874;-1.092;2023-02-11T10:56:03;103190.59;;;9.49;98.26
9784;BME280;4931;44.874;-1.092;2023-02-11T10:58:38;103183.81;;;9.65;97.06
9784;BME280;4931;44.874;-1.092;2023-02-11T11:01:05;103179.59;;;9.76;95.75
9784;BME280;4931;44.874;-1.092;2023-02-11T11:03:37;103174.28;;;9.88;98.42
9784;BME280;4931;44.874;-1.092;2023-02-11T11:06:05;103163.03;;;10.03;94.78
9784;BME280;4931;44.874;-1.092;2023-02-11T11:08:49;103178.13;;;10.19;89.92
9784;BME280;4931;44.874;-1.092;2023-02-11T11:11:21;103176.03;;;10.21;86.57
9784;BME280;4931;44.874;-1.092;2023-02-11T11:24:38;103150.78;;;10.51;77.31
9784;BME280;4931;44.874;-1.092;2023-02-11T11:27:01;103144.09;;;10.72;80.06
9784;BME280;4931;44.874;-1.092;2023-02-11T11:29:35;103145.28;;;10.83;81.14
9784;BME280;4931;44.874;-1.092;2023-02-11T11:32:23;103142.13;;;11.04;79.23
9784;BME280;4931;44.874;-1.092;2023-02-11T11:34:54;103138.03;;;11.13;79.78
9784;BME280;4931;44.874;-1.092;2023-02-11T11:37:31;103139.38;;;11.29;78.24
9784;BME280;4931;44.874;-1.092;2023-02-11T11:40:21;103139.31;;;11.36;75.69
9784;BME280;4931;44.874;-1.092;2023-02-11T11:43:03;103131.53;;;11.52;74.71
9784;BME280;4931;44.874;-1.092;2023-02-11T11:45:29;103133.81;;;11.73;73.24
9784;BME280;4931;44.874;-1.092;2023-02-11T11:48:05;103124.94;;;11.71;71.57
9784;BME280;4931;44.874;-1.092;2023-02-11T11:56:10;103111.66;;;11.68;68.57
9784;BME280;4931;44.874;-1.092;2023-02-11T11:58:37;103108.88;;;11.87;64.50
9784;BME280;4931;44.874;-1.092;2023-02-11T12:01:14;103101.84;;;12.09;64.78
9784;BME280;4931;44.874;-1.092;2023-02-11T12:06:40;103099.38;;;12.20;63.55
9784;BME280;4931;44.874;-1.092;2023-02-11T12:09:42;103103.28;;;12.12;66.24
9784;BME280;4931;44.874;-1.092;2023-02-11T12:12:25;103092.53;;;12.10;71.15
9784;BME280;4931;44.874;-1.092;2023-02-11T12:15:22;103089.78;;;12.10;67.63
9784;BME280;4931;44.874;-1.092;2023-02-11T12:31:58;103082.50;;;12.70;62.37
9784;BME280;4931;44.874;-1.092;2023-02-11T12:39:36;103065.97;;;12.47;60.49
9784;BME280;4931;44.874;-1.092;2023-02-11T12:42:16;103063.91;;;12.54;62.09
9784;BME280;4931;44.874;-1.092;2023-02-11T12:59:14;103046.06;;;13.39;51.60
9784;BME280;4931;44.874;-1.092;2023-02-11T13:01:43;103043.91;;;13.41;50.99
9784;BME280;4931;44.874;-1.092;2023-02-11T13:04:25;103043.91;;;13.29;49.52
9784;BME280;4931;44.874;-1.092;2023-02-11T13:06:58;103042.72;;;13.37;48.81
9784;BME280;4931;44.874;-1.092;2023-02-11T13:09:50;103036.00;;;13.33;50.08
9784;BME280;4931;44.874;-1.092;2023-02-11T13:12:18;103028.56;;;13.45;48.02
9784;BME280;4931;44.874;-1.092;2023-02-11T13:15:12;103024.97;;;13.33;49.17
9784;BME280;4931;44.874;-1.092;2023-02-11T13:20:40;103020.97;;;13.00;46.89
9784;BME280;4931;44.874;-1.092;2023-02-11T13:25:47;103007.03;;;13.19;42.76
9784;BME280;4931;44.874;-1.092;2023-02-11T13:28:47;103007.03;;;13.19;44.25
9784;BME280;4931;44.874;-1.092;2023-02-11T13:31:10;103009.44;;;13.03;43.60
9784;BME280;4931;44.874;-1.092;2023-02-11T13:33:38;103009.72;;;12.90;44.59
9784;BME280;4931;44.874;-1.092;2023-02-11T13:38:33;102999.63;;;13.07;44.67
9784;BME280;4931;44.874;-1.092;2023-02-11T13:41:04;102992.91;;;13.15;45.17
9784;BME280;4931;44.874;-1.092;2023-02-11T13:43:33;102994.72;;;13.09;44.64
9784;BME280;4931;44.874;-1.092;2023-02-11T13:46:02;102996.00;;;13.19;44.36
9784;BME280;4931;44.874;-1.092;2023-02-11T13:48:31;102982.00;;;13.08;44.89
9784;BME280;4931;44.874;-1.092;2023-02-11T13:51:04;102985.72;;;13.02;42.88
9784;BME280;4931;44.874;-1.092;2023-02-11T13:53:53;102985.00;;;13.19;44.31
9784;BME280;4931;44.874;-1.092;2023-02-11T13:58:54;102968.00;;;12.98;42.26
9784;BME280;4931;44.874;-1.092;2023-02-11T14:16:10;102964.88;;;13.06;39.85
9784;BME280;4931;44.874;-1.092;2023-02-11T14:23:38;102949.94;;;12.78;41.56
9784;BME280;4931;44.874;-1.092;2023-02-11T14:28:47;102955.56;;;12.84;39.97
9784;BME280;4931;44.874;-1.092;2023-02-11T14:31:28;102954.50;;;12.85;40.93
9784;BME280;4931;44.874;-1.092;2023-02-11T14:34:20;102953.34;;;12.57;39.65
9784;BME280;4931;44.874;-1.092;2023-02-11T14:37:16;102944.47;;;12.31;40.25
9784;BME280;4931;44.874;-1.092;2023-02-11T14:42:19;102955.22;;;12.33;42.01
9784;BME280;4931;44.874;-1.092;2023-02-11T14:44:50;102951.41;;;12.34;41.68
9784;BME280;4931;44.874;-1.092;2023-02-11T14:47:19;102952.97;;;12.41;41.74
9784;BME280;4931;44.874;-1.092;2023-02-11T14:49:47;102954.16;;;12.45;41.88
9784;BME280;4931;44.874;-1.092;2023-02-11T14:52:28;102954.66;;;12.42;40.53
9784;BME280;4931;44.874;-1.092;2023-02-11T14:55:49;102953.09;;;12.35;41.97
9784;BME280;4931;44.874;-1.092;2023-02-11T14:58:04;102945.88;;;12.10;40.95
9784;BME280;4931;44.874;-1.092;2023-02-11T15:00:30;102933.44;;;12.19;42.44
9784;BME280;4931;44.874;-1.092;2023-02-11T15:02:55;102935.97;;;12.21;43.78
9784;BME280;4931;44.874;-1.092;2023-02-11T15:05:24;102942.53;;;12.32;43.94
9784;BME280;4931;44.874;-1.092;2023-02-11T15:07:53;102943.41;;;12.32;44.68
9784;BME280;4931;44.874;-1.092;2023-02-11T15:12:53;102936.78;;;12.09;44.92
9784;BME280;4931;44.874;-1.092;2023-02-11T15:15:19;102929.25;;;12.17;46.81
9784;BME280;4931;44.874;-1.092;2023-02-11T15:17:44;102934.03;;;12.09;45.05
9784;BME280;4931;44.874;-1.092;2023-02-11T15:20:23;102931.78;;;12.30;46.29
9784;BME280;4931;44.874;-1.092;2023-02-11T15:22:54;102937.41;;;12.23;47.83
9784;BME280;4931;44.874;-1.092;2023-02-11T15:25:20;102938.13;;;12.19;48.40
9784;BME280;4931;44.874;-1.092;2023-02-11T15:27:52;102931.72;;;11.94;49.77
9784;BME280;4931;44.874;-1.092;2023-02-11T15:32:45;102936.50;;;11.87;51.01
9784;BME280;4931;44.874;-1.092;2023-02-11T15:35:11;102930.88;;;11.94;52.47